Language selection

My Weather Profile Weather Topics  | 

Western Lake Superior: Past 24 Hour Conditions

 

West Superior - 45006

10:00 AM EDT 22 September 2021Buoy position: 47.35N 89.82W
Disclaimer

This table is a summary of hourly weather conditions for the past 24 hours.
Please note that these observations might not always be representative of weather conditions over their associated marine area.

Date / Time
(EDT)
Wind(knots) Wave height(m) Wave period(s) Pressure(kPa) Air tempC) Water tempC)
22 September 2021
10:00 NNE 4 gust 6 N/A N/A 102.7 14 16
9:00 N 6 gust 8 N/A N/A 102.7 14 16
8:00 N 6 gust 8 N/A N/A 102.7 14 16
7:00 NNW 6 gust 8 N/A N/A 102.7 14 15
6:00 N 8 gust 10 N/A N/A 102.6 14 16
5:00 NE 4 gust 6 N/A N/A 102.6 15 16
4:00 ENE 4 gust 6 N/A N/A 102.6 15 16
3:00 NE 6 gust 8 N/A N/A 102.5 15 16
2:00 N 12 gust 13 N/A N/A 102.6 15 16
1:00 N 12 gust 13 N/A N/A 102.6 15 16
0:00 N 12 gust 12 N/A N/A 102.6 15 16
21 September 2021
23:00 N 10 gust 13 N/A N/A 102.5 15 15
22:00 WNW 10 gust 10 N/A N/A 102.5 15 15
21:00 W 6 gust 6 N/A N/A 102.4 15 15
20:00 W 6 gust 8 N/A N/A 102.3 15 15
19:00 W 8 gust 10 N/A N/A 102.3 15 16
18:00 WSW 8 gust 10 N/A N/A 102.2 15 16
17:00 WSW 12 gust 13 N/A N/A 102.2 15 16
16:00 W 10 gust 12 N/A N/A 102.2 15 16
15:00 W 13 gust 16 N/A N/A 102.1 14 16
14:00 NW 13 gust 16 N/A N/A 102.1 15 16
13:00 NNW 13 gust 16 N/A N/A 102.0 14 15
12:00 NW 16 gust 17 N/A N/A 101.9 15 15
11:00 WNW 13 gust 17 N/A N/A 101.8 15 15
10:00 NW 16 gust 19 N/A N/A 101.6 15 15

Zoom-in to make a selection

Map of Great Lakes - Lake Superior marine weather areas Mid Superior - 45001 East Superior - 45004 West Superior - 45006 Slate Island - 45136 Lake Of the Woods - 45148 Kenora Airport Royal Island Armstrong Airport Caribou Island Marathon Airport Pukaskwa National Park Thunder Bay Airport Welcome Island Little Flatland Island Sault Ste. Marie Airport Wawa Airport
Legend:
buoy Buoy
land station Land Station

Great Lakes - Lake Superior Area

Another Region

What we are doing

Date modified: